Terminal Aerodrome Forecast
Issued by NWS

Home | Current Version | Previous Version | Text Only | Print | Product List | Glossary On
Versions: 1 2 3 4 5 6 7 8 9 10 11 12 13 14 15 16 17
871
FTUS45 KABQ 281913 AAB
TAFLVS
TAF AMD
KLVS 281913Z 2819/2918 35010KT 1/4SM -RASN OVC005
     FM282000 25015G25KT P6SM -RASN OVC010
     FM290200 05008KT 2SM -RASN OVC007
     FM290900 06010KT 1SM -SN BR OVC005
     FM291200 03020G30KT 1 1/2SM -SN OVC015=

USA.gov is the U.S. government's official web portal to all federal, state and local government web resources and services.